KKLS/KLS METAR and TAF weather

Enter ICAO airport designator
Station Type Date Time Source
KKLS METAR 2019/02/16 00:56 UTC NOAA

KKLS 160056Z AUTO 10003KT 10SM BKN100 07/03 A2967 RMK AO2 RAE25 SLP051 P0001 T00720033


Station Type Date Time Source
KKLS Decoded METAR 2019/02/16 00:56 UTC NOAA

Kelso, Kelso-Longview Airport, WA, United States (KKLS) 46-07N 122-54W
Feb 15, 2019 - 07:56 PM EST / 2019.02.16 0056 UTC
Wind: from the E (100 degrees) at 3 MPH (3 KT):0
Visibility: 10 mile(s):0
Sky conditions: mostly cloudy
Precipitation last hour: 0.01 inches
Temperature: 45.0 F (7.2 C)
Dew Point: 37.9 F (3.3 C)
Relative Humidity: 76%
Pressure (altimeter): 29.67 in. Hg (1004 hPa)
ob: KKLS 160056Z AUTO 10003KT 10SM BKN100 07/03 A2967 RMK AO2 RAE25 SLP051 P0001 T00720033
cycle: 1

Station Type Date Time Source
KKLS TAF UTC NOAA

Error!


Example: see airport list